Time;durP1;ratioP1;P1;durP2;ratioP2;P2;SDS_P1;SDS_P2;PMS_P1;PMS_P2;Temp;Humidity;BMP_temperature;BMP_pressure;BME280_temperature;BME280_humidity;BME280_pressure;Samples;Min_cycle;Max_cycle;Signal;HPM_P1;HPM_P2
2024/04/17 00:09:37;;;;;;;2.08;0.90;;;;;;;;;;22301278;26;20034;-43
2024/04/17 00:19:38;;;;;;;1.63;0.52;;;;;;;;;;22394071;26;20007;-46
2024/04/17 00:29:40;;;;;;;2.97;0.50;;;;;;;;;;22389151;26;19999;-45
2024/04/17 00:39:42;;;;;;;2.03;0.30;;;;;;;;;;22390683;26;20007;-45
2024/04/17 00:49:43;;;;;;;3.03;0.50;;;;;;;;;;22433924;26;20450;-43
2024/04/17 00:59:45;;;;;;;1.90;0.32;;;;;;;;;;22432360;26;19999;-44
2024/04/17 01:09:46;;;;;;;1.02;0.30;;;;;;;;;;22383438;26;20011;-44
2024/04/17 01:19:48;;;;;;;2.83;0.40;;;;;;;;;;22492522;26;20609;-44
2024/04/17 01:29:50;;;;;;;2.40;0.45;;;;;;;;;;22428518;26;20552;-43
2024/04/17 01:39:51;;;;;;;1.35;0.43;;;;;;;;;;22419838;26;19999;-43
2024/04/17 01:49:53;;;;;;;0.70;0.20;;;;;;;;;;22427969;26;20042;-44
2024/04/17 01:59:55;;;;;;;3.25;0.30;;;;;;;;;;22401011;26;20000;-44
2024/04/17 02:10:14;;;;;;;1.90;0.57;;;;;;;;;;22380390;26;20000;-43
2024/04/17 02:20:17;;;;;;;1.27;0.20;;;;;;;;;;22355477;26;20004;-45
2024/04/17 02:30:19;;;;;;;4.25;0.30;;;;;;;;;;22331322;26;20001;-44
2024/04/17 02:40:20;;;;;;;1.38;0.30;;;;;;;;;;22337921;26;20018;-44
2024/04/17 02:50:23;;;;;;;1.35;0.30;;;;;;;;;;22400842;26;20008;-44
2024/04/17 03:00:26;;;;;;;3.08;0.40;;;;;;;;;;22402899;26;20004;-44
2024/04/17 03:21:20;;;;;;;1.58;0.40;;;;;;;;;;22386356;26;19999;-44
2024/04/17 03:31:21;;;;;;;1.30;0.60;;;;;;;;;;22387483;26;20003;-44
2024/04/17 03:41:24;;;;;;;4.13;0.77;;;;;;;;;;22374037;26;20369;-43
2024/04/17 03:51:26;;;;;;;2.67;0.43;;;;;;;;;;22404966;26;20004;-43
2024/04/17 04:01:27;;;;;;;2.63;0.50;;;;;;;;;;22404525;26;20000;-44
2024/04/17 04:11:30;;;;;;;2.17;0.50;;;;;;;;;;22312312;26;19999;-45
2024/04/17 04:21:31;;;;;;;3.58;0.60;;;;;;;;;;22402610;26;20008;-45
2024/04/17 04:31:33;;;;;;;2.08;0.85;;;;;;;;;;22398488;26;19996;-45
2024/04/17 04:41:34;;;;;;;2.00;0.40;;;;;;;;;;22401955;26;20043;-43
2024/04/17 04:51:36;;;;;;;1.90;0.55;;;;;;;;;;22347775;26;20022;-43
2024/04/17 05:01:37;;;;;;;3.47;0.77;;;;;;;;;;22375143;26;20000;-44
2024/04/17 05:11:40;;;;;;;5.10;1.02;;;;;;;;;;22335513;26;20039;-44
2024/04/17 05:21:41;;;;;;;1.10;0.50;;;;;;;;;;22396712;26;20048;-44
2024/04/17 05:31:44;;;;;;;1.42;0.30;;;;;;;;;;22407165;26;20341;-45
2024/04/17 05:41:46;;;;;;;2.03;0.30;;;;;;;;;;22392077;26;20039;-44
2024/04/17 05:51:48;;;;;;;4.38;1.05;;;;;;;;;;22390356;26;20044;-44
2024/04/17 06:01:51;;;;;;;1.67;0.88;;;;;;;;;;22410211;26;21016;-43
2024/04/17 06:23:22;;;;;;;2.10;0.70;;;;;;;;;;22353573;26;20008;-51
2024/04/17 06:33:24;;;;;;;3.00;0.40;;;;;;;;;;22380786;26;20011;-49
2024/04/17 06:43:26;;;;;;;0.70;0.35;;;;;;;;;;22403939;26;20137;-49
2024/04/17 06:53:27;;;;;;;2.08;0.38;;;;;;;;;;22399568;26;19996;-49
2024/04/17 07:03:29;;;;;;;1.05;0.30;;;;;;;;;;22401773;26;20003;-49
2024/04/17 07:13:31;;;;;;;1.30;0.28;;;;;;;;;;22397271;26;20004;-48
2024/04/17 07:23:32;;;;;;;2.60;0.25;;;;;;;;;;22405369;26;20018;-52
2024/04/17 07:33:36;;;;;;;1.52;0.30;;;;;;;;;;22454390;26;20026;-49
2024/04/17 07:43:38;;;;;;;1.77;0.35;;;;;;;;;;22546558;26;20079;-50
2024/04/17 07:53:40;;;;;;;6.88;0.40;;;;;;;;;;22461326;26;20000;-49
2024/04/17 08:03:44;;;;;;;2.30;0.47;;;;;;;;;;22539605;26;20006;-50
2024/04/17 08:13:46;;;;;;;2.67;0.30;;;;;;;;;;22543595;26;20359;-49
2024/04/17 08:23:48;;;;;;;0.98;0.25;;;;;;;;;;22538876;26;20009;-51
2024/04/17 08:34:21;;;;;;;0.85;0.22;;;;;;;;;;22499313;26;20015;-51
2024/04/17 08:44:28;;;;;;;1.53;0.20;;;;;;;;;;22493593;26;20379;-49
2024/04/17 08:54:31;;;;;;;4.00;0.38;;;;;;;;;;22519774;26;20228;-49
2024/04/17 09:04:32;;;;;;;3.85;0.35;;;;;;;;;;22557246;26;20438;-49
2024/04/17 09:25:32;;;;;;;1.95;0.43;;;;;;;;;;22555773;26;20003;-50
2024/04/17 09:35:37;;;;;;;2.45;0.28;;;;;;;;;;22556990;26;20419;-52
2024/04/17 09:45:40;;;;;;;0.93;0.20;;;;;;;;;;22552930;26;20515;-53
2024/04/17 09:55:41;;;;;;;2.83;0.20;;;;;;;;;;22533504;26;20538;-54
2024/04/17 10:05:44;;;;;;;1.98;0.20;;;;;;;;;;22546771;26;20002;-52
2024/04/17 10:15:45;;;;;;;1.75;0.20;;;;;;;;;;22544574;26;20072;-55
2024/04/17 10:25:54;;;;;;;1.17;0.40;;;;;;;;;;22561139;26;20375;-52
2024/04/17 10:35:57;;;;;;;1.77;0.50;;;;;;;;;;22539564;26;20002;-53
2024/04/17 10:46:04;;;;;;;1.98;0.45;;;;;;;;;;22558075;26;20080;-56
2024/04/17 10:56:09;;;;;;;1.67;0.30;;;;;;;;;;22558434;26;20006;-52
2024/04/17 11:06:11;;;;;;;5.28;0.68;;;;;;;;;;22547423;26;20003;-52
2024/04/17 11:16:13;;;;;;;2.97;0.55;;;;;;;;;;22516196;26;19999;-53
2024/04/17 11:26:15;;;;;;;0.95;0.30;;;;;;;;;;22481831;26;20004;-52
2024/04/17 11:36:18;;;;;;;3.45;0.20;;;;;;;;;;22605686;26;20510;-52
2024/04/17 11:46:20;;;;;;;1.95;0.30;;;;;;;;;;22629216;26;20362;-53
2024/04/17 11:56:23;;;;;;;0.95;0.30;;;;;;;;;;22704799;26;20078;-52
2024/04/17 12:06:24;;;;;;;3.58;0.35;;;;;;;;;;22703498;26;20002;-53
2024/04/17 12:16:26;;;;;;;3.13;0.65;;;;;;;;;;22701488;26;20013;-53
2024/04/17 12:36:49;;;;;;;3.42;0.70;;;;;;;;;;22640730;26;20003;-52
2024/04/17 12:46:50;;;;;;;4.22;0.73;;;;;;;;;;22661942;26;20016;-52
2024/04/17 12:56:52;;;;;;;2.03;0.50;;;;;;;;;;22666122;26;20009;-54
2024/04/17 13:06:55;;;;;;;3.63;0.50;;;;;;;;;;22694436;26;20333;-53
2024/04/17 13:16:57;;;;;;;3.05;0.77;;;;;;;;;;22628450;26;20425;-52
2024/04/17 13:27:00;;;;;;;6.43;0.87;;;;;;;;;;22685569;26;20013;-52
2024/04/17 13:37:02;;;;;;;4.15;0.60;;;;;;;;;;22693051;26;20009;-50
2024/04/17 13:47:10;;;;;;;3.67;0.70;;;;;;;;;;22648466;26;20030;-51
2024/04/17 13:57:11;;;;;;;5.13;1.30;;;;;;;;;;22693359;26;19998;-50
2024/04/17 14:07:13;;;;;;;2.17;0.75;;;;;;;;;;22666365;26;20002;-50
2024/04/17 14:28:10;;;;;;;6.15;0.80;;;;;;;;;;22701039;26;20006;-50
2024/04/17 14:38:12;;;;;;;6.50;1.30;;;;;;;;;;22653206;26;20006;-51
2024/04/17 14:48:14;;;;;;;2.55;1.02;;;;;;;;;;22621104;26;20038;-50
2024/04/17 14:58:18;;;;;;;3.20;0.90;;;;;;;;;;22676524;26;20013;-50
2024/04/17 15:08:22;;;;;;;2.07;0.93;;;;;;;;;;22707412;26;20083;-51
2024/04/17 15:18:25;;;;;;;3.10;0.70;;;;;;;;;;22707266;26;20029;-54
2024/04/17 15:28:26;;;;;;;3.30;0.68;;;;;;;;;;22594429;26;19999;-52
2024/04/17 15:38:30;;;;;;;3.70;1.55;;;;;;;;;;22628994;26;20043;-50
2024/04/17 15:48:31;;;;;;;2.22;0.60;;;;;;;;;;22699520;26;20009;-52
2024/04/17 15:58:34;;;;;;;3.15;0.60;;;;;;;;;;22707832;26;20002;-51
2024/04/17 16:08:36;;;;;;;5.05;1.23;;;;;;;;;;22707933;26;20021;-50
2024/04/17 16:18:38;;;;;;;2.10;0.60;;;;;;;;;;22706930;26;19998;-50
2024/04/17 16:28:45;;;;;;;4.50;1.08;;;;;;;;;;22705408;26;20002;-50
2024/04/17 16:38:48;;;;;;;7.47;1.50;;;;;;;;;;22611793;26;20437;-51
2024/04/17 16:48:51;;;;;;;5.83;1.03;;;;;;;;;;22686865;26;20014;-52
2024/04/17 16:58:54;;;;;;;4.57;1.05;;;;;;;;;;22704892;26;20014;-51
2024/04/17 17:08:55;;;;;;;5.45;1.23;;;;;;;;;;22700778;26;20423;-51
2024/04/17 17:18:57;;;;;;;6.35;1.15;;;;;;;;;;22680125;26;20037;-51
2024/04/17 17:29:07;;;;;;;3.35;0.70;;;;;;;;;;22663763;26;20009;-51
2024/04/17 17:39:10;;;;;;;4.88;0.75;;;;;;;;;;22622611;26;20006;-51
2024/04/17 17:49:14;;;;;;;5.85;1.00;;;;;;;;;;22709744;26;20074;-50
2024/04/17 17:59:15;;;;;;;3.77;0.57;;;;;;;;;;22662433;26;19999;-51
2024/04/17 18:09:18;;;;;;;4.03;0.55;;;;;;;;;;22711529;26;20006;-50
2024/04/17 18:19:21;;;;;;;4.25;1.67;;;;;;;;;;22712978;26;19998;-51
2024/04/17 18:29:23;;;;;;;1.38;0.38;;;;;;;;;;22695048;26;20017;-51
2024/04/17 18:39:25;;;;;;;3.03;1.02;;;;;;;;;;22681017;26;20020;-51
2024/04/17 18:49:26;;;;;;;3.95;1.38;;;;;;;;;;22711030;26;20427;-52
2024/04/17 18:59:28;;;;;;;4.55;1.30;;;;;;;;;;22709069;26;20026;-51
2024/04/17 19:09:32;;;;;;;9.68;2.70;;;;;;;;;;22703468;26;20353;-51
2024/04/17 19:19:33;;;;;;;3.63;1.13;;;;;;;;;;22702273;26;20070;-52
2024/04/17 19:29:35;;;;;;;5.10;2.00;;;;;;;;;;22700301;26;20329;-53
2024/04/17 19:39:40;;;;;;;3.90;1.55;;;;;;;;;;22708463;26;20564;-53
2024/04/17 19:49:45;;;;;;;5.53;1.58;;;;;;;;;;22706202;26;20013;-54
2024/04/17 19:59:48;;;;;;;4.18;1.38;;;;;;;;;;22652429;26;19998;-53
2024/04/17 20:09:50;;;;;;;2.47;0.73;;;;;;;;;;22705379;26;20009;-52
2024/04/17 20:20:11;;;;;;;3.35;0.30;;;;;;;;;;22703346;26;20014;-52
2024/04/17 20:30:18;;;;;;;1.23;0.30;;;;;;;;;;22644542;26;20416;-52
2024/04/17 20:40:20;;;;;;;1.50;0.68;;;;;;;;;;22669490;26;20452;-54
2024/04/17 20:50:21;;;;;;;5.50;1.85;;;;;;;;;;22668173;26;20005;-51
2024/04/17 21:00:23;;;;;;;1.95;0.43;;;;;;;;;;22665220;26;20058;-44
2024/04/17 21:10:26;;;;;;;1.58;0.40;;;;;;;;;;22707975;26;20006;-45
2024/04/17 21:20:28;;;;;;;4.18;0.85;;;;;;;;;;22711606;26;20006;-45
2024/04/17 21:31:03;;;;;;;2.63;0.83;;;;;;;;;;22709289;26;20078;-45
2024/04/17 21:41:18;;;;;;;2.13;0.30;;;;;;;;;;22690454;26;20002;-43
2024/04/17 21:51:20;;;;;;;;;;;;;;;;;;22711177;26;20456;-44
2024/04/17 22:01:23;;;;;;;1.15;0.30;;;;;;;;;;22682191;26;20354;-44
2024/04/17 22:11:26;;;;;;;1.75;0.30;;;;;;;;;;22647407;26;20030;-44
2024/04/17 22:21:28;;;;;;;3.03;0.30;;;;;;;;;;22710490;26;20002;-44
2024/04/17 22:31:29;;;;;;;2.22;0.20;;;;;;;;;;22709461;26;20449;-44
2024/04/17 22:41:31;;;;;;;3.15;0.20;;;;;;;;;;22708795;26;20063;-45
2024/04/17 22:51:32;;;;;;;1.10;0.15;;;;;;;;;;22700061;26;20071;-44
2024/04/17 23:01:34;;;;;;;1.98;0.20;;;;;;;;;;22618663;26;20717;-47
2024/04/17 23:11:35;;;;;;;2.47;0.50;;;;;;;;;;22706711;26;20013;-43
2024/04/17 23:21:37;;;;;;;0.88;0.20;;;;;;;;;;22705245;26;20002;-43
2024/04/17 23:31:38;;;;;;;3.72;0.22;;;;;;;;;;22662695;26;20007;-43
2024/04/17 23:41:40;;;;;;;4.05;0.50;;;;;;;;;;22673283;26;20042;-43
2024/04/17 23:51:41;;;;;;;5.13;0.50;;;;;;;;;;22706250;26;20009;-43
